Temp: 17.3°C   Baro: 1010.2mb
  Wind: 10.1mph   Dir: W (277°)
  Rain: 0.8mm (0.0mm/hr)
  Solar: 172W/m2  Hum: 92%
 
Bath Spa Weather Station Historical Data
Daily Summary for June 1, 2019 Units:  Both    English   Metric
Daily Weekly Monthly Yearly Custom
  High: Low: Average:
Temperature: 67.2 °F /  19.6 °C 55 °F /  12.8 °C 60.5 °F /  15.8 °C
Dew Point: 56.3 °F /  13.5 °C 47.1 °F /  8.4 °C 52 °F /  11.1 °C
Humidity: 87% 62.9% 74%
Wind Speed: 10.4mph /  16.7km/h - 4.9mph /  7.9km/h
Wind Gust: 20mph /  32.2km/h - -
Wind- - WNW
Pressure: 30.25 in /  1024.3 hPa 30.06 in /  1017.8 hPa -
Precipitation: 0.00 in /  0 mm    
Historical Graphs
 
 
Tabular Data for June 1, 2019
Time Temperature Dew Point Pressure Wind Wind Speed Wind Gust Humidity Rainfall Rate (Hourly) solar
00:04 57.2 °F /  14 °C 52.7 °F /  11.5 °C 30.08in /  1018.5hPa West 2mph /  3.2km/h 4mph /  6.4km/h 85.2% 0.00in /  0mm 0 W/m2
00:09 57 °F /  13.9 °C 52.7 °F /  11.5 °C 30.08in /  1018.5hPa West 1.3mph /  2.1km/h 4mph /  6.4km/h 85.5% 0.00in /  0mm 0 W/m2
00:14 56.9 °F /  13.8 °C 52.8 °F /  11.6 °C 30.08in /  1018.5hPa West 2mph /  3.2km/h 4mph /  6.4km/h 86% 0.00in /  0mm 0 W/m2
00:19 56.8 °F /  13.8 °C 52.7 °F /  11.5 °C 30.08in /  1018.5hPa West 2.4mph /  3.9km/h 5mph /  8km/h 86% 0.00in /  0mm 0 W/m2
00:24 56.7 °F /  13.7 °C 52.6 °F /  11.4 °C 30.08in /  1018.5hPa West 2.1mph /  3.4km/h 5mph /  8km/h 86.1% 0.00in /  0mm 0 W/m2
00:29 56.7 °F /  13.7 °C 52.9 °F /  11.6 °C 30.08in /  1018.5hPa West 1.5mph /  2.4km/h 5mph /  8km/h 87% 0.00in /  0mm 0 W/m2
00:34 56.7 °F /  13.7 °C 52.9 °F /  11.6 °C 30.08in /  1018.5hPa West 1.3mph /  2.1km/h 4mph /  6.4km/h 87% 0.00in /  0mm 0 W/m2
00:39 56.7 °F /  13.7 °C 52.9 °F /  11.6 °C 30.08in /  1018.5hPa West 1mph /  1.6km/h 4mph /  6.4km/h 87% 0.00in /  0mm 0 W/m2
00:44 56.7 °F /  13.7 °C 53 °F /  11.7 °C 30.08in /  1018.5hPa West 1.4mph /  2.3km/h 3mph /  4.8km/h 87% 0.00in /  0mm 0 W/m2
00:49 56.8 °F /  13.8 °C 53 °F /  11.7 °C 30.08in /  1018.5hPa West 1.9mph /  3.1km/h 4mph /  6.4km/h 87% 0.00in /  0mm 0 W/m2
00:54 56.8 °F /  13.8 °C 53.1 °F /  11.7 °C 30.07in /  1018.2hPa West 1.8mph /  2.9km/h 4mph /  6.4km/h 87% 0.00in /  0mm 0 W/m2
00:59 56.8 °F /  13.8 °C 53.1 °F /  11.7 °C 30.07in /  1018.2hPa West 1.7mph /  2.7km/h 4mph /  6.4km/h 87% 0.00in /  0mm 0 W/m2
01:04 56.8 °F /  13.8 °C 53.1 °F /  11.7 °C 30.07in /  1018.2hPa West 1.6mph /  2.6km/h 4mph /  6.4km/h 87% 0.00in /  0mm 0 W/m2
01:09 56.8 °F /  13.8 °C 53.1 °F /  11.7 °C 30.07in /  1018.2hPa West 1.2mph /  1.9km/h 4mph /  6.4km/h 87% 0.00in /  0mm 0 W/m2
01:14 56.8 °F /  13.8 °C 53.1 °F /  11.7 °C 30.07in /  1018.2hPa West 1.1mph /  1.8km/h 4mph /  6.4km/h 87% 0.00in /  0mm 0 W/m2
01:19 56.8 °F /  13.8 °C 53.1 °F /  11.7 °C 30.07in /  1018.2hPa West 2.2mph /  3.5km/h 4mph /  6.4km/h 87% 0.00in /  0mm 0 W/m2
01:24 56.8 °F /  13.8 °C 53.1 °F /  11.7 °C 30.07in /  1018.2hPa West 1.9mph /  3.1km/h 4mph /  6.4km/h 87% 0.00in /  0mm 0 W/m2
01:29 56.8 °F /  13.8 °C 52.9 °F /  11.6 °C 30.07in /  1018.2hPa West 2.8mph /  4.5km/h 5mph /  8km/h 86.5% 0.00in /  0mm 0 W/m2
01:34 56.9 °F /  13.8 °C 52.8 °F /  11.6 °C 30.07in /  1018.2hPa West 2.6mph /  4.2km/h 5mph /  8km/h 86% 0.00in /  0mm 0 W/m2
01:39 57 °F /  13.9 °C 52.9 °F /  11.6 °C 30.07in /  1018.2hPa West 3mph /  4.8km/h 6mph /  9.7km/h 86% 0.00in /  0mm 0 W/m2
01:44 57 °F /  13.9 °C 52.9 °F /  11.6 °C 30.07in /  1018.2hPa West 2.8mph /  4.5km/h 6mph /  9.7km/h 86% 0.00in /  0mm 0 W/m2
01:49 57.2 °F /  14 °C 53.1 °F /  11.7 °C 30.06in /  1017.8hPa West 4.3mph /  6.9km/h 9mph /  14.5km/h 86% 0.00in /  0mm 0 W/m2
01:54 57.3 °F /  14.1 °C 53 °F /  11.7 °C 30.06in /  1017.8hPa West 4.1mph /  6.6km/h 9mph /  14.5km/h 85.5% 0.00in /  0mm 0 W/m2
01:59 57.5 °F /  14.2 °C 53 °F /  11.7 °C 30.06in /  1017.8hPa West 4.2mph /  6.8km/h 9mph /  14.5km/h 85% 0.00in /  0mm 0 W/m2
02:04 57.6 °F /  14.2 °C 53.1 °F /  11.7 °C 30.06in /  1017.8hPa West 5.1mph /  8.2km/h 11mph /  17.7km/h 85% 0.00in /  0mm 0 W/m2
02:09 57.8 °F /  14.3 °C 53.6 °F /  12 °C 30.06in /  1017.8hPa West 5.7mph /  9.2km/h 11mph /  17.7km/h 85.6% 0.00in /  0mm 0 W/m2
02:14 58 °F /  14.4 °C 53.8 °F /  12.1 °C 30.06in /  1017.8hPa West 6.5mph /  10.5km/h 11mph /  17.7km/h 85.6% 0.00in /  0mm 0 W/m2
02:19 58.1 °F /  14.5 °C 53.6 °F /  12 °C 30.06in /  1017.8hPa West 7.4mph /  11.9km/h 12mph /  19.3km/h 85% 0.00in /  0mm 0 W/m2
02:24 58.2 °F /  14.6 °C 53.7 °F /  12.1 °C 30.06in /  1017.8hPa West 6.3mph /  10.1km/h 12mph /  19.3km/h 85% 0.00in /  0mm 0 W/m2
02:29 58.2 °F /  14.6 °C 53.7 °F /  12.1 °C 30.06in /  1017.8hPa West 6.9mph /  11.1km/h 12mph /  19.3km/h 85% 0.00in /  0mm 0 W/m2
02:34 58.1 °F /  14.5 °C 53.6 °F /  12 °C 30.06in /  1017.8hPa WNW 7.8mph /  12.6km/h 15mph /  24.1km/h 85% 0.00in /  0mm 0 W/m2
02:39 58.1 °F /  14.5 °C 53.4 °F /  11.9 °C 30.06in /  1017.8hPa West 8.3mph /  13.4km/h 14mph /  22.5km/h 84.4% 0.00in /  0mm 0 W/m2
02:44 58.1 °F /  14.5 °C 53.2 °F /  11.8 °C 30.06in /  1017.8hPa WNW 6.8mph /  10.9km/h 14mph /  22.5km/h 84% 0.00in /  0mm 0 W/m2
02:49 58.1 °F /  14.5 °C 53.2 °F /  11.8 °C 30.06in /  1017.8hPa WNW 7.1mph /  11.4km/h 15mph /  24.1km/h 84% 0.00in /  0mm 0 W/m2
02:54 57.9 °F /  14.4 °C 53.1 °F /  11.7 °C 30.06in /  1017.8hPa WNW 8.1mph /  13km/h 14mph /  22.5km/h 84% 0.00in /  0mm 0 W/m2
02:59 57.9 °F /  14.4 °C 53.1 °F /  11.7 °C 30.06in /  1017.8hPa West 7.4mph /  11.9km/h 15mph /  24.1km/h 84% 0.00in /  0mm 0 W/m2
03:04 57.7 °F /  14.3 °C 52.9 °F /  11.6 °C 30.06in /  1017.8hPa West 7.4mph /  11.9km/h 12mph /  19.3km/h 84% 0.00in /  0mm 0 W/m2
03:09 57.7 °F /  14.3 °C 52.9 °F /  11.6 °C 30.06in /  1017.8hPa West 6.5mph /  10.5km/h 11mph /  17.7km/h 84% 0.00in /  0mm 0 W/m2
03:14 57.6 °F /  14.2 °C 52.7 °F /  11.5 °C 30.07in /  1018.2hPa West 7.6mph /  12.2km/h 12mph /  19.3km/h 84% 0.00in /  0mm 0 W/m2
03:19 57.6 °F /  14.2 °C 52.7 °F /  11.5 °C 30.07in /  1018.2hPa WNW 6mph /  9.7km/h 10mph /  16.1km/h 84% 0.00in /  0mm 0 W/m2
03:24 57.3 °F /  14.1 °C 52.4 °F /  11.3 °C 30.07in /  1018.2hPa WNW 6.7mph /  10.8km/h 11mph /  17.7km/h 84% 0.00in /  0mm 0 W/m2
03:29 57.2 °F /  14 °C 52.3 °F /  11.3 °C 30.07in /  1018.2hPa WNW 7.8mph /  12.6km/h 16mph /  25.7km/h 84% 0.00in /  0mm 0 W/m2
03:34 57.2 °F /  14 °C 52.3 °F /  11.3 °C 30.07in /  1018.2hPa WNW 6.4mph /  10.3km/h 12mph /  19.3km/h 83.6% 0.00in /  0mm 0 W/m2
03:39 57.1 °F /  13.9 °C 52.1 °F /  11.2 °C 30.07in /  1018.2hPa West 6.7mph /  10.8km/h 13mph /  20.9km/h 83% 0.00in /  0mm 0 W/m2
03:44 57 °F /  13.9 °C 52 °F /  11.1 °C 30.07in /  1018.2hPa West 5.3mph /  8.5km/h 9mph /  14.5km/h 83% 0.00in /  0mm 0 W/m2
03:49 57 °F /  13.9 °C 52 °F /  11.1 °C 30.07in /  1018.2hPa West 6.9mph /  11.1km/h 13mph /  20.9km/h 83% 0.00in /  0mm 0 W/m2
03:54 57 °F /  13.9 °C 52 °F /  11.1 °C 30.07in /  1018.2hPa WNW 7.1mph /  11.4km/h 13mph /  20.9km/h 83% 0.00in /  0mm 0 W/m2
03:59 57 °F /  13.9 °C 52 °F /  11.1 °C 30.07in /  1018.2hPa West 5.5mph /  8.9km/h 12mph /  19.3km/h 83% 0.00in /  0mm 0 W/m2
04:04 57 °F /  13.9 °C 52 °F /  11.1 °C 30.07in /  1018.2hPa West 4.8mph /  7.7km/h 9mph /  14.5km/h 83% 0.00in /  0mm 0 W/m2
04:09 56.9 °F /  13.8 °C 51.9 °F /  11.1 °C 30.07in /  1018.2hPa West 5.3mph /  8.5km/h 12mph /  19.3km/h 83% 0.00in /  0mm 0 W/m2
04:14 56.8 °F /  13.8 °C 51.8 °F /  11 °C 30.07in /  1018.2hPa WNW 4.9mph /  7.9km/h 12mph /  19.3km/h 83% 0.00in /  0mm 0 W/m2
04:19 56.8 °F /  13.8 °C 51.7 °F /  10.9 °C 30.07in /  1018.2hPa West 3.8mph /  6.1km/h 8mph /  12.9km/h 82.8% 0.00in /  0mm 0 W/m2
04:24 56.8 °F /  13.8 °C 51.4 °F /  10.8 °C 30.07in /  1018.2hPa West 6.4mph /  10.3km/h 10mph /  16.1km/h 82% 0.00in /  0mm 0 W/m2
04:29 56.7 °F /  13.7 °C 51.5 °F /  10.8 °C 30.07in /  1018.2hPa West 6.1mph /  9.8km/h 11mph /  17.7km/h 82.8% 0.00in /  0mm 0 W/m2
04:34 56.6 °F /  13.7 °C 51.5 °F /  10.8 °C 30.07in /  1018.2hPa West 6.1mph /  9.8km/h 12mph /  19.3km/h 83% 0.00in /  0mm 0 W/m2
04:39 56.5 °F /  13.6 °C 51.4 °F /  10.8 °C 30.07in /  1018.2hPa West 4.4mph /  7.1km/h 12mph /  19.3km/h 83% 0.00in /  0mm 0 W/m2
04:44 56.3 °F /  13.5 °C 51.3 °F /  10.7 °C 30.07in /  1018.2hPa West 3.3mph /  5.3km/h 8mph /  12.9km/h 83% 0.00in /  0mm 0 W/m2
04:49 56.3 °F /  13.5 °C 51.4 °F /  10.8 °C 30.07in /  1018.2hPa WNW 5.4mph /  8.7km/h 10mph /  16.1km/h 83.5% 0.00in /  0mm 0 W/m2
04:54 56.1 °F /  13.4 °C 51.4 °F /  10.8 °C 30.07in /  1018.2hPa WNW 4.4mph /  7.1km/h 10mph /  16.1km/h 84% 0.00in /  0mm 0 W/m2
04:59 56 °F /  13.3 °C 51.4 °F /  10.8 °C 30.07in /  1018.2hPa WNW 4.4mph /  7.1km/h 9mph /  14.5km/h 84.4% 0.00in /  0mm 0 W/m2
05:04 55.9 °F /  13.3 °C 51.4 °F /  10.8 °C 30.08in /  1018.5hPa WNW 3.3mph /  5.3km/h 9mph /  14.5km/h 85% 0.00in /  0mm 5 W/m2
05:09 55.8 °F /  13.2 °C 51.3 °F /  10.7 °C 30.08in /  1018.5hPa WNW 3.1mph /  5km/h 7mph /  11.3km/h 85% 0.00in /  0mm 9 W/m2
05:14 55.7 °F /  13.2 °C 51.3 °F /  10.7 °C 30.08in /  1018.5hPa WNW 2.4mph /  3.9km/h 5mph /  8km/h 85.6% 0.00in /  0mm 12 W/m2
05:19 55.4 °F /  13 °C 51.3 °F /  10.7 °C 30.08in /  1018.5hPa West 2.6mph /  4.2km/h 7mph /  11.3km/h 86% 0.00in /  0mm 18 W/m2
05:24 55.4 °F /  13 °C 51.3 °F /  10.7 °C 30.08in /  1018.5hPa West 3.2mph /  5.1km/h 7mph /  11.3km/h 86% 0.00in /  0mm 18 W/m2
05:29 55.4 °F /  13 °C 51.3 °F /  10.7 °C 30.08in /  1018.5hPa West 3.3mph /  5.3km/h 7mph /  11.3km/h 86% 0.00in /  0mm 19 W/m2
05:34 55.4 °F /  13 °C 51.3 °F /  10.7 °C 30.08in /  1018.5hPa West 3.2mph /  5.1km/h 7mph /  11.3km/h 86% 0.00in /  0mm 19 W/m2
05:39 55.3 °F /  12.9 °C 51.4 °F /  10.8 °C 30.09in /  1018.8hPa West 3.5mph /  5.6km/h 7mph /  11.3km/h 86.4% 0.00in /  0mm 19 W/m2
05:44 55.2 °F /  12.9 °C 51.4 °F /  10.8 °C 30.09in /  1018.8hPa WNW 3.1mph /  5km/h 6mph /  9.7km/h 87% 0.00in /  0mm 21 W/m2
05:49 55.2 °F /  12.9 °C 51.4 °F /  10.8 °C 30.09in /  1018.8hPa WNW 3.5mph /  5.6km/h 7mph /  11.3km/h 87% 0.00in /  0mm 21 W/m2
05:54 55 °F /  12.8 °C 51.3 °F /  10.7 °C 30.09in /  1018.8hPa WNW 3.4mph /  5.5km/h 7mph /  11.3km/h 87% 0.00in /  0mm 23 W/m2
05:59 55 °F /  12.8 °C 51.3 °F /  10.7 °C 30.09in /  1018.8hPa WNW 2.7mph /  4.3km/h 7mph /  11.3km/h 87% 0.00in /  0mm 25 W/m2
06:04 55 °F /  12.8 °C 51.3 °F /  10.7 °C 30.09in /  1018.8hPa WNW 3.8mph /  6.1km/h 8mph /  12.9km/h 87% 0.00in /  0mm 25 W/m2
06:09 55 °F /  12.8 °C 51.3 °F /  10.7 °C 30.09in /  1018.8hPa WNW 3.1mph /  5km/h 8mph /  12.9km/h 87% 0.00in /  0mm 26 W/m2
06:14 55 °F /  12.8 °C 51.3 °F /  10.7 °C 30.09in /  1018.8hPa NW 3.4mph /  5.5km/h 8mph /  12.9km/h 87% 0.00in /  0mm 28 W/m2
06:19 55 °F /  12.8 °C 51.3 °F /  10.7 °C 30.09in /  1018.8hPa WNW 2.6mph /  4.2km/h 7mph /  11.3km/h 87% 0.00in /  0mm 30 W/m2
06:24 55.1 °F /  12.8 °C 51.3 °F /  10.7 °C 30.10in /  1019.2hPa WNW 2.4mph /  3.9km/h 5mph /  8km/h 87% 0.00in /  0mm 33 W/m2
06:29 55.2 °F /  12.9 °C 51.4 °F /  10.8 °C 30.09in /  1018.8hPa WNW 3.6mph /  5.8km/h 8mph /  12.9km/h 86.9% 0.00in /  0mm 47 W/m2
06:34 55.5 °F /  13.1 °C 51.3 °F /  10.7 °C 30.10in /  1019.2hPa WNW 2.5mph /  4km/h 5mph /  8km/h 86% 0.00in /  0mm 54 W/m2
06:39 55.8 °F /  13.2 °C 51.5 °F /  10.8 °C 30.10in /  1019.2hPa NW 2.4mph /  3.9km/h 7mph /  11.3km/h 85.9% 0.00in /  0mm 60 W/m2
06:44 55.8 °F /  13.2 °C 51.3 °F /  10.7 °C 30.10in /  1019.2hPa WNW 3.2mph /  5.1km/h 6mph /  9.7km/h 85% 0.00in /  0mm 91 W/m2
06:49 55.9 °F /  13.3 °C 51.4 °F /  10.8 °C 30.10in /  1019.2hPa West 3.8mph /  6.1km/h 7mph /  11.3km/h 84.8% 0.00in /  0mm 72 W/m2
06:54 55.9 °F /  13.3 °C 51.1 °F /  10.6 °C 30.11in /  1019.5hPa WNW 3.5mph /  5.6km/h 7mph /  11.3km/h 83.6% 0.00in /  0mm 54 W/m2
06:59 55.9 °F /  13.3 °C 50.9 °F /  10.5 °C 30.11in /  1019.5hPa West 3mph /  4.8km/h 8mph /  12.9km/h 83% 0.00in /  0mm 63 W/m2
07:04 56.1 °F /  13.4 °C 50.7 °F /  10.4 °C 30.11in /  1019.5hPa WNW 4.2mph /  6.8km/h 8mph /  12.9km/h 82% 0.00in /  0mm 74 W/m2
07:09 56.1 °F /  13.4 °C 50.4 °F /  10.2 °C 30.11in /  1019.5hPa West 3.8mph /  6.1km/h 7mph /  11.3km/h 81.1% 0.00in /  0mm 91 W/m2
07:14 56.2 °F /  13.4 °C 50.4 °F /  10.2 °C 30.11in /  1019.5hPa West 3.3mph /  5.3km/h 8mph /  12.9km/h 80.7% 0.00in /  0mm 218 W/m2
07:19 56.6 °F /  13.7 °C 50.4 °F /  10.2 °C 30.11in /  1019.5hPa West 3.2mph /  5.1km/h 7mph /  11.3km/h 80% 0.00in /  0mm 216 W/m2
07:24 56.9 °F /  13.8 °C 50.4 °F /  10.2 °C 30.11in /  1019.5hPa West 4.3mph /  6.9km/h 7mph /  11.3km/h 79.1% 0.00in /  0mm 213 W/m2
07:29 57.4 °F /  14.1 °C 50.5 °F /  10.3 °C 30.11in /  1019.5hPa West 3.7mph /  6km/h 9mph /  14.5km/h 77.8% 0.00in /  0mm 225 W/m2
07:34 57.6 °F /  14.2 °C 50 °F /  10 °C 30.11in /  1019.5hPa WNW 8.8mph /  14.2km/h 13mph /  20.9km/h 75.9% 0.00in /  0mm 272 W/m2
07:39 57.7 °F /  14.3 °C 49.5 °F /  9.7 °C 30.11in /  1019.5hPa WNW 6.9mph /  11.1km/h 13mph /  20.9km/h 73.9% 0.00in /  0mm 279 W/m2
07:44 57.9 °F /  14.4 °C 49.3 °F /  9.6 °C 30.11in /  1019.5hPa West 6.8mph /  10.9km/h 11mph /  17.7km/h 73% 0.00in /  0mm 204 W/m2
07:49 57.8 °F /  14.3 °C 49.2 °F /  9.6 °C 30.11in /  1019.5hPa West 8.6mph /  13.8km/h 12mph /  19.3km/h 73% 0.00in /  0mm 135 W/m2
07:54 57.7 °F /  14.3 °C 48.7 °F /  9.3 °C 30.12in /  1019.9hPa West 7.9mph /  12.7km/h 15mph /  24.1km/h 72.1% 0.00in /  0mm 167 W/m2
07:59 57.7 °F /  14.3 °C 48.7 °F /  9.3 °C 30.12in /  1019.9hPa West 7.3mph /  11.7km/h 14mph /  22.5km/h 72% 0.00in /  0mm 287 W/m2
08:04 58 °F /  14.4 °C 48.8 °F /  9.3 °C 30.12in /  1019.9hPa WNW 7.9mph /  12.7km/h 14mph /  22.5km/h 71.4% 0.00in /  0mm 387 W/m2
08:09 58.1 °F /  14.5 °C 48.4 °F /  9.1 °C 30.12in /  1019.9hPa WNW 8.2mph /  13.2km/h 15mph /  24.1km/h 70.1% 0.00in /  0mm 369 W/m2
08:14 58.1 °F /  14.5 °C 48.1 °F /  8.9 °C 30.13in /  1020.2hPa WNW 6.9mph /  11.1km/h 13mph /  20.9km/h 69.4% 0.00in /  0mm 153 W/m2
08:19 57.9 °F /  14.4 °C 47.7 °F /  8.7 °C 30.13in /  1020.2hPa West 9.7mph /  15.6km/h 15mph /  24.1km/h 68.6% 0.00in /  0mm 156 W/m2
08:24 57.9 °F /  14.4 °C 47.5 °F /  8.6 °C 30.13in /  1020.2hPa WNW 6.8mph /  10.9km/h 13mph /  20.9km/h 68% 0.00in /  0mm 171 W/m2
08:29 57.9 °F /  14.4 °C 47.5 °F /  8.6 °C 30.14in /  1020.5hPa WNW 7.5mph /  12.1km/h 15mph /  24.1km/h 68% 0.00in /  0mm 192 W/m2
08:34 58 °F /  14.4 °C 47.3 °F /  8.5 °C 30.14in /  1020.5hPa NW 8.9mph /  14.3km/h 16mph /  25.7km/h 67.6% 0.00in /  0mm 218 W/m2
08:39 58.2 °F /  14.6 °C 47.2 °F /  8.4 °C 30.14in /  1020.5hPa NW 5.9mph /  9.5km/h 14mph /  22.5km/h 67% 0.00in /  0mm 309 W/m2
08:44 58.5 °F /  14.7 °C 47.3 °F /  8.5 °C 30.14in /  1020.5hPa NW 7.5mph /  12.1km/h 15mph /  24.1km/h 66.5% 0.00in /  0mm 197 W/m2
08:49 58.5 °F /  14.7 °C 47.6 °F /  8.7 °C 30.14in /  1020.5hPa WNW 6.2mph /  10km/h 12mph /  19.3km/h 67% 0.00in /  0mm 264 W/m2
08:54 58.6 °F /  14.8 °C 47.7 °F /  8.7 °C 30.14in /  1020.5hPa WNW 8.2mph /  13.2km/h 14mph /  22.5km/h 67% 0.00in /  0mm 329 W/m2
08:59 58.8 °F /  14.9 °C 47.2 °F /  8.4 °C 30.14in /  1020.5hPa WNW 10.3mph /  16.6km/h 16mph /  25.7km/h 65.4% 0.00in /  0mm 476 W/m2
09:04 58.8 °F /  14.9 °C 47.2 °F /  8.4 °C 30.14in /  1020.5hPa WNW 9mph /  14.5km/h 16mph /  25.7km/h 65.2% 0.00in /  0mm 229 W/m2
09:09 58.7 °F /  14.8 °C 47.1 °F /  8.4 °C 30.15in /  1020.9hPa WNW 8.2mph /  13.2km/h 13mph /  20.9km/h 65.3% 0.00in /  0mm 232 W/m2
09:14 58.8 °F /  14.9 °C 47.1 °F /  8.4 °C 30.15in /  1020.9hPa WNW 8.4mph /  13.5km/h 15mph /  24.1km/h 65% 0.00in /  0mm 213 W/m2
09:19 58.8 °F /  14.9 °C 47.4 °F /  8.6 °C 30.15in /  1020.9hPa WNW 7.7mph /  12.4km/h 14mph /  22.5km/h 65.7% 0.00in /  0mm 216 W/m2
09:24 58.9 °F /  14.9 °C 47.6 °F /  8.7 °C 30.15in /  1020.9hPa WNW 5.4mph /  8.7km/h 13mph /  20.9km/h 66.1% 0.00in /  0mm 216 W/m2
09:29 58.9 °F /  14.9 °C 47.8 °F /  8.8 °C 30.15in /  1020.9hPa WNW 8.9mph /  14.3km/h 18mph /  29km/h 66.5% 0.00in /  0mm 250 W/m2
09:34 58.9 °F /  14.9 °C 47.4 °F /  8.6 °C 30.15in /  1020.9hPa WNW 6.7mph /  10.8km/h 14mph /  22.5km/h 65.6% 0.00in /  0mm 292 W/m2
09:39 59 °F /  15 °C 47.3 °F /  8.5 °C 30.15in /  1020.9hPa WNW 6.1mph /  9.8km/h 14mph /  22.5km/h 65% 0.00in /  0mm 281 W/m2
09:44 59.3 °F /  15.2 °C 47.6 °F /  8.7 °C 30.15in /  1020.9hPa WNW 3.9mph /  6.3km/h 10mph /  16.1km/h 65% 0.00in /  0mm 297 W/m2
09:49 59.6 °F /  15.3 °C 48.3 °F /  9.1 °C 30.15in /  1020.9hPa NW 7mph /  11.3km/h 13mph /  20.9km/h 66.1% 0.00in /  0mm 343 W/m2
09:54 60 °F /  15.6 °C 49.4 °F /  9.7 °C 30.15in /  1020.9hPa WNW 7.1mph /  11.4km/h 16mph /  25.7km/h 68% 0.00in /  0mm 861 W/m2
09:59 60.6 °F /  15.9 °C 49.9 °F /  9.9 °C 30.15in /  1020.9hPa WNW 7.6mph /  12.2km/h 14mph /  22.5km/h 67.9% 0.00in /  0mm 833 W/m2
10:04 60.7 °F /  15.9 °C 49.7 °F /  9.8 °C 30.15in /  1020.9hPa WNW 10.4mph /  16.7km/h 20mph /  32.2km/h 67% 0.00in /  0mm 763 W/m2
10:09 61 °F /  16.1 °C 50.1 °F /  10.1 °C 30.14in /  1020.5hPa NW 7.4mph /  11.9km/h 20mph /  32.2km/h 67.2% 0.00in /  0mm 763 W/m2
10:14 60.6 °F /  15.9 °C 49.7 °F /  9.8 °C 30.15in /  1020.9hPa WNW 7.5mph /  12.1km/h 15mph /  24.1km/h 67% 0.00in /  0mm 248 W/m2
10:19 60.2 °F /  15.7 °C 49.5 °F /  9.7 °C 30.15in /  1020.9hPa WNW 8.6mph /  13.8km/h 14mph /  22.5km/h 68% 0.00in /  0mm 323 W/m2
10:24 59.9 °F /  15.5 °C 49.2 °F /  9.6 °C 30.15in /  1020.9hPa WNW 9.3mph /  15km/h 14mph /  22.5km/h 67.8% 0.00in /  0mm 394 W/m2
10:29 60.1 °F /  15.6 °C 49.5 °F /  9.7 °C 30.15in /  1020.9hPa WNW 5.5mph /  8.9km/h 13mph /  20.9km/h 68% 0.00in /  0mm 394 W/m2
10:34 60.4 °F /  15.8 °C 49.7 °F /  9.8 °C 30.15in /  1020.9hPa NW 8.8mph /  14.2km/h 17mph /  27.4km/h 68% 0.00in /  0mm 417 W/m2
10:39 60.6 °F /  15.9 °C 50 °F /  10 °C 30.15in /  1020.9hPa NW 5.5mph /  8.9km/h 12mph /  19.3km/h 68% 0.00in /  0mm 844 W/m2
10:44 61.3 °F /  16.3 °C 50.5 °F /  10.3 °C 30.15in /  1020.9hPa WNW 7.6mph /  12.2km/h 13mph /  20.9km/h 67.5% 0.00in /  0mm 844 W/m2
10:49 61 °F /  16.1 °C 50.1 °F /  10.1 °C 30.15in /  1020.9hPa WNW 8.1mph /  13km/h 15mph /  24.1km/h 67.3% 0.00in /  0mm 455 W/m2
10:54 61.4 °F /  16.3 °C 50.6 °F /  10.3 °C 30.15in /  1020.9hPa NW 6.4mph /  10.3km/h 14mph /  22.5km/h 67.8% 0.00in /  0mm 1164 W/m2
10:59 61.4 °F /  16.3 °C 50.2 °F /  10.1 °C 30.15in /  1020.9hPa NW 8.4mph /  13.5km/h 15mph /  24.1km/h 66.5% 0.00in /  0mm 1164 W/m2
11:04 61.2 °F /  16.2 °C 50.4 °F /  10.2 °C 30.15in /  1020.9hPa WNW 8.6mph /  13.8km/h 15mph /  24.1km/h 67.6% 0.00in /  0mm 329 W/m2
11:09 61.2 °F /  16.2 °C 50.4 °F /  10.2 °C 30.15in /  1020.9hPa WNW 6.6mph /  10.6km/h 14mph /  22.5km/h 67.7% 0.00in /  0mm 341 W/m2
11:14 61.3 °F /  16.3 °C 50.5 °F /  10.3 °C 30.15in /  1020.9hPa WNW 6.1mph /  9.8km/h 13mph /  20.9km/h 67.6% 0.00in /  0mm 719 W/m2
11:19 62.3 °F /  16.8 °C 51.3 °F /  10.7 °C 30.15in /  1020.9hPa NW 5.2mph /  8.4km/h 12mph /  19.3km/h 67.2% 0.00in /  0mm 508 W/m2
11:24 62.1 °F /  16.7 °C 50.7 °F /  10.4 °C 30.15in /  1020.9hPa NW 5.4mph /  8.7km/h 11mph /  17.7km/h 66.1% 0.00in /  0mm 867 W/m2
11:29 62.6 °F /  17 °C 51 °F /  10.6 °C 30.15in /  1020.9hPa NW 6.3mph /  10.1km/h 13mph /  20.9km/h 65.9% 0.00in /  0mm 1028 W/m2
11:34 62.5 °F /  16.9 °C 50.6 °F /  10.3 °C 30.15in /  1020.9hPa WNW 7.6mph /  12.2km/h 13mph /  20.9km/h 65% 0.00in /  0mm 1028 W/m2
11:39 62.2 °F /  16.8 °C 50.3 °F /  10.2 °C 30.15in /  1020.9hPa WNW 6.9mph /  11.1km/h 13mph /  20.9km/h 65% 0.00in /  0mm 432 W/m2
11:44 62.6 °F /  17 °C 50.9 °F /  10.5 °C 30.15in /  1020.9hPa NW 5.1mph /  8.2km/h 10mph /  16.1km/h 65.7% 0.00in /  0mm 432 W/m2
11:49 63 °F /  17.2 °C 51 °F /  10.6 °C 30.16in /  1021.2hPa WNW 7mph /  11.3km/h 14mph /  22.5km/h 64.9% 0.00in /  0mm 496 W/m2
11:54 62.2 °F /  16.8 °C 50.6 °F /  10.3 °C 30.16in /  1021.2hPa NW 7.1mph /  11.4km/h 14mph /  22.5km/h 65.8% 0.00in /  0mm 441 W/m2
11:59 62.2 °F /  16.8 °C 51 °F /  10.6 °C 30.16in /  1021.2hPa NW 6mph /  9.7km/h 12mph /  19.3km/h 66.7% 0.00in /  0mm 455 W/m2
12:04 63 °F /  17.2 °C 51.5 °F /  10.8 °C 30.16in /  1021.2hPa WNW 6.4mph /  10.3km/h 14mph /  22.5km/h 66.1% 0.00in /  0mm 436 W/m2
12:09 63.4 °F /  17.4 °C 51.3 °F /  10.7 °C 30.16in /  1021.2hPa WNW 7.4mph /  11.9km/h 14mph /  22.5km/h 64.5% 0.00in /  0mm 1109 W/m2
12:14 63.5 °F /  17.5 °C 51.2 °F /  10.7 °C 30.16in /  1021.2hPa NW 8.7mph /  14km/h 15mph /  24.1km/h 64.3% 0.00in /  0mm 1083 W/m2
12:19 63.3 °F /  17.4 °C 51.5 °F /  10.8 °C 30.16in /  1021.2hPa NW 7.7mph /  12.4km/h 14mph /  22.5km/h 65.2% 0.00in /  0mm 1111 W/m2
12:24 64.6 °F /  18.1 °C 52 °F /  11.1 °C 30.16in /  1021.2hPa NW 7.9mph /  12.7km/h 13mph /  20.9km/h 63.7% 0.00in /  0mm 1111 W/m2
12:29 64.6 °F /  18.1 °C 52.1 °F /  11.2 °C 30.16in /  1021.2hPa WNW 4.6mph /  7.4km/h 13mph /  20.9km/h 64% 0.00in /  0mm 1095 W/m2
12:34 64.6 °F /  18.1 °C 51.7 °F /  10.9 °C 30.16in /  1021.2hPa NW 8.8mph /  14.2km/h 17mph /  27.4km/h 62.9% 0.00in /  0mm 1095 W/m2
12:39 64 °F /  17.8 °C 51.7 °F /  10.9 °C 30.16in /  1021.2hPa WNW 5.4mph /  8.7km/h 17mph /  27.4km/h 64.4% 0.00in /  0mm 452 W/m2
12:44 64.4 °F /  18 °C 52.1 °F /  11.2 °C 30.16in /  1021.2hPa NW 5.9mph /  9.5km/h 11mph /  17.7km/h 64.3% 0.00in /  0mm 452 W/m2
12:49 63.9 °F /  17.7 °C 51.5 °F /  10.8 °C 30.16in /  1021.2hPa WNW 4.8mph /  7.7km/h 11mph /  17.7km/h 64% 0.00in /  0mm 415 W/m2
12:54 64 °F /  17.8 °C 51.8 °F /  11 °C 30.16in /  1021.2hPa WNW 7.1mph /  11.4km/h 12mph /  19.3km/h 64.6% 0.00in /  0mm 404 W/m2
12:59 63.6 °F /  17.6 °C 51.4 °F /  10.8 °C 30.16in /  1021.2hPa WNW 7.4mph /  11.9km/h 13mph /  20.9km/h 64.6% 0.00in /  0mm 478 W/m2
13:04 63.9 °F /  17.7 °C 52.1 °F /  11.2 °C 30.16in /  1021.2hPa WNW 4.7mph /  7.6km/h 10mph /  16.1km/h 65.6% 0.00in /  0mm 513 W/m2
13:09 64.5 °F /  18.1 °C 52.2 °F /  11.2 °C 30.16in /  1021.2hPa NW 5.7mph /  9.2km/h 12mph /  19.3km/h 64.4% 0.00in /  0mm 513 W/m2
13:14 64 °F /  17.8 °C 52 °F /  11.1 °C 30.16in /  1021.2hPa WNW 7.9mph /  12.7km/h 13mph /  20.9km/h 65.2% 0.00in /  0mm 577 W/m2
13:19 64.5 °F /  18.1 °C 52.7 °F /  11.5 °C 30.16in /  1021.2hPa WNW 4.6mph /  7.4km/h 11mph /  17.7km/h 65.5% 0.00in /  0mm 573 W/m2
13:24 64.7 °F /  18.2 °C 52.4 °F /  11.3 °C 30.16in /  1021.2hPa WNW 5.8mph /  9.3km/h 11mph /  17.7km/h 64.3% 0.00in /  0mm 353 W/m2
13:29 64.3 °F /  17.9 °C 52.3 °F /  11.3 °C 30.16in /  1021.2hPa WNW 3.8mph /  6.1km/h 9mph /  14.5km/h 65.1% 0.00in /  0mm 439 W/m2
13:34 64.3 °F /  17.9 °C 52.1 °F /  11.2 °C 30.16in /  1021.2hPa WNW 6.2mph /  10km/h 10mph /  16.1km/h 64.8% 0.00in /  0mm 613 W/m2
13:39 64.4 °F /  18 °C 52.4 °F /  11.3 °C 30.16in /  1021.2hPa WNW 5.3mph /  8.5km/h 10mph /  16.1km/h 65.2% 0.00in /  0mm 613 W/m2
13:44 64.6 °F /  18.1 °C 52.5 °F /  11.4 °C 30.16in /  1021.2hPa WNW 5.9mph /  9.5km/h 13mph /  20.9km/h 65% 0.00in /  0mm 385 W/m2
13:49 64.3 °F /  17.9 °C 52.8 °F /  11.6 °C 30.16in /  1021.2hPa WNW 5.9mph /  9.5km/h 13mph /  20.9km/h 66% 0.00in /  0mm 436 W/m2
13:54 64.3 °F /  17.9 °C 53 °F /  11.7 °C 30.16in /  1021.2hPa WNW 4.1mph /  6.6km/h 10mph /  16.1km/h 66.5% 0.00in /  0mm 436 W/m2
13:59 64.8 °F /  18.2 °C 53.1 °F /  11.7 °C 30.16in /  1021.2hPa WNW 6.5mph /  10.5km/h 11mph /  17.7km/h 65.9% 0.00in /  0mm 403 W/m2
14:04 64.7 °F /  18.2 °C 53 °F /  11.7 °C 30.17in /  1021.6hPa West 8.7mph /  14km/h 14mph /  22.5km/h 65.8% 0.00in /  0mm 371 W/m2
14:09 64.2 °F /  17.9 °C 52.7 °F /  11.5 °C 30.16in /  1021.2hPa WNW 5.7mph /  9.2km/h 14mph /  22.5km/h 66% 0.00in /  0mm 392 W/m2
14:14 64.2 °F /  17.9 °C 52.9 °F /  11.6 °C 30.16in /  1021.2hPa WNW 6.3mph /  10.1km/h 11mph /  17.7km/h 66.7% 0.00in /  0mm 515 W/m2
14:19 64.4 °F /  18 °C 53 °F /  11.7 °C 30.17in /  1021.6hPa WNW 6.4mph /  10.3km/h 11mph /  17.7km/h 66.3% 0.00in /  0mm 494 W/m2
14:24 64.7 °F /  18.2 °C 54 °F /  12.2 °C 30.17in /  1021.6hPa West 6mph /  9.7km/h 9mph /  14.5km/h 68.2% 0.00in /  0mm 469 W/m2
14:29 64.9 °F /  18.3 °C 54.5 °F /  12.5 °C 30.17in /  1021.6hPa West 3.5mph /  5.6km/h 9mph /  14.5km/h 69% 0.00in /  0mm 816 W/m2
14:34 65.8 °F /  18.8 °C 54.2 °F /  12.3 °C 30.16in /  1021.2hPa WNW 5.2mph /  8.4km/h 9mph /  14.5km/h 66.3% 0.00in /  0mm 990 W/m2
14:39 66 °F /  18.9 °C 53.8 °F /  12.1 °C 30.16in /  1021.2hPa WNW 4.8mph /  7.7km/h 10mph /  16.1km/h 64.8% 0.00in /  0mm 1074 W/m2
14:44 66.8 °F /  19.3 °C 54.6 °F /  12.6 °C 30.16in /  1021.2hPa WNW 5.5mph /  8.9km/h 11mph /  17.7km/h 64.9% 0.00in /  0mm 1118 W/m2
14:49 67.2 °F /  19.6 °C 54.9 °F /  12.7 °C 30.16in /  1021.2hPa WNW 6.4mph /  10.3km/h 12mph /  19.3km/h 64.5% 0.00in /  0mm 1062 W/m2
14:54 66.1 °F /  18.9 °C 55.3 °F /  12.9 °C 30.16in /  1021.2hPa West 7.8mph /  12.6km/h 13mph /  20.9km/h 68.2% 0.00in /  0mm 459 W/m2
14:59 65.6 °F /  18.7 °C 55.4 °F /  13 °C 30.17in /  1021.6hPa WNW 6.2mph /  10km/h 13mph /  20.9km/h 69.7% 0.00in /  0mm 1120 W/m2
15:04 65.8 °F /  18.8 °C 55.7 °F /  13.2 °C 30.17in /  1021.6hPa WNW 7.4mph /  11.9km/h 12mph /  19.3km/h 70% 0.00in /  0mm 1153 W/m2
15:09 65.4 °F /  18.6 °C 55.5 °F /  13.1 °C 30.17in /  1021.6hPa West 8.2mph /  13.2km/h 14mph /  22.5km/h 70.3% 0.00in /  0mm 388 W/m2
15:14 65.3 °F /  18.5 °C 55.4 °F /  13 °C 30.17in /  1021.6hPa West 6.2mph /  10km/h 14mph /  22.5km/h 70.6% 0.00in /  0mm 348 W/m2
15:19 65.3 °F /  18.5 °C 55.5 °F /  13.1 °C 30.17in /  1021.6hPa WNW 8.8mph /  14.2km/h 15mph /  24.1km/h 70.6% 0.00in /  0mm 482 W/m2
15:24 64.9 °F /  18.3 °C 55.3 °F /  12.9 °C 30.17in /  1021.6hPa West 8.2mph /  13.2km/h 13mph /  20.9km/h 71% 0.00in /  0mm 315 W/m2
15:29 64.5 °F /  18.1 °C 55.1 °F /  12.8 °C 30.17in /  1021.6hPa WNW 8.4mph /  13.5km/h 13mph /  20.9km/h 71.6% 0.00in /  0mm 348 W/m2
15:34 64.5 °F /  18.1 °C 55.2 °F /  12.9 °C 30.17in /  1021.6hPa WNW 5mph /  8km/h 12mph /  19.3km/h 71.9% 0.00in /  0mm 348 W/m2
15:39 65 °F /  18.3 °C 55.4 °F /  13 °C 30.17in /  1021.6hPa West 7.2mph /  11.6km/h 14mph /  22.5km/h 71% 0.00in /  0mm 480 W/m2
15:44 65.1 °F /  18.4 °C 55.5 °F /  13.1 °C 30.16in /  1021.2hPa WNW 6.6mph /  10.6km/h 14mph /  22.5km/h 71% 0.00in /  0mm 536 W/m2
15:49 65.3 °F /  18.5 °C 55.3 °F /  12.9 °C 30.17in /  1021.6hPa West 6.6mph /  10.6km/h 13mph /  20.9km/h 70.2% 0.00in /  0mm 322 W/m2
15:54 65.1 °F /  18.4 °C 55 °F /  12.8 °C 30.17in /  1021.6hPa WNW 8.6mph /  13.8km/h 14mph /  22.5km/h 70% 0.00in /  0mm 260 W/m2
15:59 64.9 °F /  18.3 °C 55.2 °F /  12.9 °C 30.17in /  1021.6hPa West 6.9mph /  11.1km/h 14mph /  22.5km/h 70.8% 0.00in /  0mm 431 W/m2
16:04 65.4 °F /  18.6 °C 55.7 °F /  13.2 °C 30.17in /  1021.6hPa West 7mph /  11.3km/h 13mph /  20.9km/h 71.1% 0.00in /  0mm 290 W/m2
16:09 65.1 °F /  18.4 °C 55.1 °F /  12.8 °C 30.17in /  1021.6hPa West 7.1mph /  11.4km/h 14mph /  22.5km/h 70.3% 0.00in /  0mm 336 W/m2
16:14 65.2 °F /  18.4 °C 55.1 °F /  12.8 °C 30.17in /  1021.6hPa WNW 6.9mph /  11.1km/h 13mph /  20.9km/h 70% 0.00in /  0mm 348 W/m2
16:19 65 °F /  18.3 °C 55.3 °F /  12.9 °C 30.17in /  1021.6hPa WNW 8mph /  12.9km/h 13mph /  20.9km/h 70.8% 0.00in /  0mm 306 W/m2
16:24 64.6 °F /  18.1 °C 55.3 °F /  12.9 °C 30.17in /  1021.6hPa West 8.9mph /  14.3km/h 15mph /  24.1km/h 71.9% 0.00in /  0mm 348 W/m2
16:29 65.3 °F /  18.5 °C 55.9 °F /  13.3 °C 30.17in /  1021.6hPa WSW 6.8mph /  10.9km/h 15mph /  24.1km/h 71.8% 0.00in /  0mm 408 W/m2
16:34 65.9 °F /  18.8 °C 56.2 °F /  13.4 °C 30.17in /  1021.6hPa West 7.9mph /  12.7km/h 15mph /  24.1km/h 71% 0.00in /  0mm 408 W/m2
16:39 65.3 °F /  18.5 °C 55.6 °F /  13.1 °C 30.18in /  1021.9hPa West 9.1mph /  14.6km/h 15mph /  24.1km/h 71% 0.00in /  0mm 318 W/m2
16:44 64.5 °F /  18.1 °C 55.3 °F /  12.9 °C 30.18in /  1021.9hPa West 6.9mph /  11.1km/h 15mph /  24.1km/h 72% 0.00in /  0mm 234 W/m2
16:49 64.3 °F /  17.9 °C 55.2 °F /  12.9 °C 30.18in /  1021.9hPa West 8.7mph /  14km/h 16mph /  25.7km/h 72% 0.00in /  0mm 199 W/m2
16:54 64.2 °F /  17.9 °C 55.2 °F /  12.9 °C 30.18in /  1021.9hPa WNW 4.3mph /  6.9km/h 16mph /  25.7km/h 72.6% 0.00in /  0mm 230 W/m2
16:59 64.4 °F /  18 °C 55.5 °F /  13.1 °C 30.18in /  1021.9hPa WNW 6mph /  9.7km/h 12mph /  19.3km/h 72.6% 0.00in /  0mm 200 W/m2
17:04 64.1 °F /  17.8 °C 55 °F /  12.8 °C 30.18in /  1021.9hPa WNW 7.1mph /  11.4km/h 13mph /  20.9km/h 72.3% 0.00in /  0mm 304 W/m2
17:09 64.3 °F /  17.9 °C 55.5 °F /  13.1 °C 30.18in /  1021.9hPa WNW 6.5mph /  10.5km/h 12mph /  19.3km/h 73% 0.00in /  0mm 424 W/m2
17:14 64.9 °F /  18.3 °C 55.8 °F /  13.2 °C 30.18in /  1021.9hPa WNW 6mph /  9.7km/h 13mph /  20.9km/h 72.3% 0.00in /  0mm 334 W/m2
17:19 64.9 °F /  18.3 °C 55.7 °F /  13.2 °C 30.18in /  1021.9hPa West 6.7mph /  10.8km/h 14mph /  22.5km/h 72% 0.00in /  0mm 506 W/m2
17:24 64.9 °F /  18.3 °C 55.7 °F /  13.2 °C 30.18in /  1021.9hPa WNW 6.3mph /  10.1km/h 11mph /  17.7km/h 72% 0.00in /  0mm 313 W/m2
17:29 64.9 °F /  18.3 °C 55.8 °F /  13.2 °C 30.18in /  1021.9hPa WNW 7.5mph /  12.1km/h 13mph /  20.9km/h 72.3% 0.00in /  0mm 316 W/m2
17:34 64.9 °F /  18.3 °C 55.8 °F /  13.2 °C 30.18in /  1021.9hPa WNW 7.3mph /  11.7km/h 13mph /  20.9km/h 72% 0.00in /  0mm 410 W/m2
17:39 65 °F /  18.3 °C 55.9 °F /  13.3 °C 30.18in /  1021.9hPa WNW 6.5mph /  10.5km/h 12mph /  19.3km/h 72% 0.00in /  0mm 708 W/m2
17:44 65.8 °F /  18.8 °C 56.2 °F /  13.4 °C 30.18in /  1021.9hPa WNW 6mph /  9.7km/h 11mph /  17.7km/h 71.3% 0.00in /  0mm 724 W/m2
17:49 66.1 °F /  18.9 °C 56.3 °F /  13.5 °C 30.18in /  1021.9hPa West 5.7mph /  9.2km/h 12mph /  19.3km/h 70.7% 0.00in /  0mm 687 W/m2
17:54 65.8 °F /  18.8 °C 56 °F /  13.3 °C 30.18in /  1021.9hPa West 3.7mph /  6km/h 12mph /  19.3km/h 70.7% 0.00in /  0mm 250 W/m2
17:59 65.5 °F /  18.6 °C 55.8 °F /  13.2 °C 30.18in /  1021.9hPa WNW 4.2mph /  6.8km/h 11mph /  17.7km/h 71.1% 0.00in /  0mm 330 W/m2
18:04 65.5 °F /  18.6 °C 56.1 °F /  13.4 °C 30.18in /  1021.9hPa WNW 4.1mph /  6.6km/h 8mph /  12.9km/h 71.8% 0.00in /  0mm 176 W/m2
18:09 65.3 °F /  18.5 °C 56 °F /  13.3 °C 30.18in /  1021.9hPa West 5.4mph /  8.7km/h 9mph /  14.5km/h 71.9% 0.00in /  0mm 148 W/m2
18:14 64.9 °F /  18.3 °C 55.7 °F /  13.2 °C 30.18in /  1021.9hPa WNW 5.5mph /  8.9km/h 10mph /  16.1km/h 72% 0.00in /  0mm 114 W/m2
18:19 64.6 °F /  18.1 °C 55.4 °F /  13 °C 30.18in /  1021.9hPa West 5mph /  8km/h 10mph /  16.1km/h 72% 0.00in /  0mm 109 W/m2
18:24 64.4 °F /  18 °C 55.5 °F /  13.1 °C 30.18in /  1021.9hPa WNW 4.7mph /  7.6km/h 10mph /  16.1km/h 72.7% 0.00in /  0mm 109 W/m2
18:29 64.3 °F /  17.9 °C 55.5 °F /  13.1 °C 30.19in /  1022.2hPa WNW 3.1mph /  5km/h 7mph /  11.3km/h 73% 0.00in /  0mm 98 W/m2
18:34 64.4 °F /  18 °C 55.5 °F /  13.1 °C 30.19in /  1022.2hPa WNW 3.6mph /  5.8km/h 9mph /  14.5km/h 72.8% 0.00in /  0mm 88 W/m2
18:39 64.4 °F /  18 °C 55.2 °F /  12.9 °C 30.19in /  1022.2hPa NNW 2.5mph /  4km/h 8mph /  12.9km/h 72% 0.00in /  0mm 107 W/m2
18:44 64.3 °F /  17.9 °C 55.4 °F /  13 °C 30.19in /  1022.2hPa WNW 4.4mph /  7.1km/h 8mph /  12.9km/h 72.8% 0.00in /  0mm 100 W/m2
18:49 64.1 °F /  17.8 °C 55.3 °F /  12.9 °C 30.19in /  1022.2hPa WNW 4.6mph /  7.4km/h 8mph /  12.9km/h 73% 0.00in /  0mm 90 W/m2
18:54 64 °F /  17.8 °C 55 °F /  12.8 °C 30.18in /  1021.9hPa WNW 4.5mph /  7.2km/h 8mph /  12.9km/h 72.6% 0.00in /  0mm 116 W/m2
18:59 64 °F /  17.8 °C 54.8 °F /  12.7 °C 30.19in /  1022.2hPa WNW 2.7mph /  4.3km/h 6mph /  9.7km/h 72% 0.00in /  0mm 127 W/m2
19:04 64.1 °F /  17.8 °C 54.8 °F /  12.7 °C 30.19in /  1022.2hPa NW 4.2mph /  6.8km/h 9mph /  14.5km/h 71.4% 0.00in /  0mm 167 W/m2
19:09 64.4 °F /  18 °C 54.5 °F /  12.5 °C 30.19in /  1022.2hPa NNW 2.8mph /  4.5km/h 7mph /  11.3km/h 70.4% 0.00in /  0mm 167 W/m2
19:14 64.5 °F /  18.1 °C 54.1 °F /  12.3 °C 30.19in /  1022.2hPa NNW 1.7mph /  2.7km/h 8mph /  12.9km/h 69% 0.00in /  0mm 104 W/m2
19:19 64.5 °F /  18.1 °C 53.9 °F /  12.2 °C 30.19in /  1022.2hPa NNW 3.5mph /  5.6km/h 8mph /  12.9km/h 68.4% 0.00in /  0mm 98 W/m2
19:24 64.4 °F /  18 °C 53.6 °F /  12 °C 30.19in /  1022.2hPa NNW 4.7mph /  7.6km/h 8mph /  12.9km/h 68% 0.00in /  0mm 97 W/m2
19:29 64.4 °F /  18 °C 53.6 °F /  12 °C 30.19in /  1022.2hPa North 4.3mph /  6.9km/h 12mph /  19.3km/h 68% 0.00in /  0mm 81 W/m2
19:34 64.1 °F /  17.8 °C 53.3 °F /  11.8 °C 30.19in /  1022.2hPa NNE 4.8mph /  7.7km/h 12mph /  19.3km/h 68% 0.00in /  0mm 79 W/m2
19:39 64 °F /  17.8 °C 53.2 °F /  11.8 °C 30.19in /  1022.2hPa North 2.8mph /  4.5km/h 7mph /  11.3km/h 68% 0.00in /  0mm 81 W/m2
19:44 64.1 °F /  17.8 °C 53.3 °F /  11.8 °C 30.19in /  1022.2hPa NNW 2.1mph /  3.4km/h 6mph /  9.7km/h 68% 0.00in /  0mm 83 W/m2
19:49 64.2 °F /  17.9 °C 53 °F /  11.7 °C 30.19in /  1022.2hPa NNW 4.2mph /  6.8km/h 9mph /  14.5km/h 66.8% 0.00in /  0mm 70 W/m2
19:54 64.1 °F /  17.8 °C 52.5 °F /  11.4 °C 30.19in /  1022.2hPa NW 2.9mph /  4.7km/h 7mph /  11.3km/h 65.8% 0.00in /  0mm 70 W/m2
19:59 64 °F /  17.8 °C 52.2 °F /  11.2 °C 30.19in /  1022.2hPa NW 3.9mph /  6.3km/h 8mph /  12.9km/h 65.3% 0.00in /  0mm 72 W/m2
20:04 64 °F /  17.8 °C 52.2 °F /  11.2 °C 30.20in /  1022.6hPa North 5.2mph /  8.4km/h 10mph /  16.1km/h 65.3% 0.00in /  0mm 70 W/m2
20:09 64.2 °F /  17.9 °C 52.7 °F /  11.5 °C 30.20in /  1022.6hPa North 3.1mph /  5km/h 10mph /  16.1km/h 66% 0.00in /  0mm 67 W/m2
20:14 64.2 °F /  17.9 °C 52.7 °F /  11.5 °C 30.20in /  1022.6hPa North 4.1mph /  6.6km/h 8mph /  12.9km/h 66% 0.00in /  0mm 70 W/m2
20:19 64 °F /  17.8 °C 52.5 °F /  11.4 °C 30.20in /  1022.6hPa North 4.9mph /  7.9km/h 10mph /  16.1km/h 66% 0.00in /  0mm 65 W/m2
20:24 63.9 °F /  17.7 °C 52.3 °F /  11.3 °C 30.20in /  1022.6hPa NW 3.3mph /  5.3km/h 10mph /  16.1km/h 66% 0.00in /  0mm 49 W/m2
20:29 63.7 °F /  17.6 °C 52.4 °F /  11.3 °C 30.20in /  1022.6hPa NNW 0.8mph /  1.3km/h 6mph /  9.7km/h 66.7% 0.00in /  0mm 51 W/m2
20:34 63.7 °F /  17.6 °C 52.5 °F /  11.4 °C 30.20in /  1022.6hPa NNW 2mph /  3.2km/h 6mph /  9.7km/h 67% 0.00in /  0mm 65 W/m2
20:39 63.7 °F /  17.6 °C 52.3 °F /  11.3 °C 30.20in /  1022.6hPa NW 4.9mph /  7.9km/h 8mph /  12.9km/h 66.3% 0.00in /  0mm 39 W/m2
20:44 63.5 °F /  17.5 °C 52 °F /  11.1 °C 30.21in /  1022.9hPa NNW 4.5mph /  7.2km/h 9mph /  14.5km/h 66% 0.00in /  0mm 33 W/m2
20:49 63.3 °F /  17.4 °C 52 °F /  11.1 °C 30.21in /  1022.9hPa NNW 3.4mph /  5.5km/h 9mph /  14.5km/h 66.5% 0.00in /  0mm 23 W/m2
20:54 63.3 °F /  17.4 °C 52.2 °F /  11.2 °C 30.21in /  1022.9hPa North 4.1mph /  6.6km/h 11mph /  17.7km/h 67% 0.00in /  0mm 19 W/m2
20:59 63.1 °F /  17.3 °C 52 °F /  11.1 °C 30.21in /  1022.9hPa NNW 2.6mph /  4.2km/h 7mph /  11.3km/h 67% 0.00in /  0mm 18 W/m2
21:04 62.9 °F /  17.2 °C 51.9 °F /  11.1 °C 30.21in /  1022.9hPa NNW 2.2mph /  3.5km/h 7mph /  11.3km/h 67.4% 0.00in /  0mm 14 W/m2
21:09 62.5 °F /  16.9 °C 51.9 °F /  11.1 °C 30.21in /  1022.9hPa NW 2.9mph /  4.7km/h 6mph /  9.7km/h 68% 0.00in /  0mm 14 W/m2
21:14 62.4 °F /  16.9 °C 51.8 °F /  11 °C 30.21in /  1022.9hPa NW 2.2mph /  3.5km/h 7mph /  11.3km/h 68% 0.00in /  0mm 14 W/m2
21:19 62.3 °F /  16.8 °C 51.7 °F /  10.9 °C 30.21in /  1022.9hPa NW 1.5mph /  2.4km/h 3mph /  4.8km/h 68% 0.00in /  0mm 11 W/m2
21:24 62.1 °F /  16.7 °C 51.4 °F /  10.8 °C 30.22in /  1023.2hPa NW 1.4mph /  2.3km/h 4mph /  6.4km/h 68% 0.00in /  0mm 7 W/m2
21:29 61.9 °F /  16.6 °C 51.3 °F /  10.7 °C 30.22in /  1023.2hPa NW 2.2mph /  3.5km/h 6mph /  9.7km/h 68% 0.00in /  0mm 5 W/m2
21:34 61.7 °F /  16.5 °C 51.1 °F /  10.6 °C 30.22in /  1023.2hPa NW 2.3mph /  3.7km/h 6mph /  9.7km/h 68% 0.00in /  0mm 0 W/m2
21:39 61.5 °F /  16.4 °C 51.2 °F /  10.7 °C 30.22in /  1023.2hPa NW 1.1mph /  1.8km/h 5mph /  8km/h 68.7% 0.00in /  0mm 0 W/m2
21:44 61.4 °F /  16.3 °C 51.2 °F /  10.7 °C 30.22in /  1023.2hPa NW 0.9mph /  1.4km/h 4mph /  6.4km/h 69% 0.00in /  0mm 0 W/m2
21:49 61.3 °F /  16.3 °C 51 °F /  10.6 °C 30.22in /  1023.2hPa NW 0.3mph /  0.5km/h 2mph /  3.2km/h 69% 0.00in /  0mm 0 W/m2
21:54 60.9 °F /  16.1 °C 50.8 °F /  10.4 °C 30.23in /  1023.6hPa NW 0.2mph /  0.3km/h 3mph /  4.8km/h 69.6% 0.00in /  0mm 0 W/m2
21:59 60.6 °F /  15.9 °C 50.7 °F /  10.4 °C 30.23in /  1023.6hPa Calm     70% 0.00in /  0mm 0 W/m2
22:04 60.4 °F /  15.8 °C 50.9 °F /  10.5 °C 30.23in /  1023.6hPa NW 0.5mph /  0.8km/h 2mph /  3.2km/h 70.8% 0.00in /  0mm 0 W/m2
22:09 59.9 °F /  15.5 °C 50.5 °F /  10.3 °C 30.23in /  1023.6hPa NW 0.4mph /  0.6km/h 2mph /  3.2km/h 71% 0.00in /  0mm 0 W/m2
22:14 59.5 °F /  15.3 °C 50.3 °F /  10.2 °C 30.23in /  1023.6hPa NW 1.4mph /  2.3km/h 3mph /  4.8km/h 71.3% 0.00in /  0mm 0 W/m2
22:19 59.3 °F /  15.2 °C 50.3 °F /  10.2 °C 30.23in /  1023.6hPa NW 1.7mph /  2.7km/h 4mph /  6.4km/h 72% 0.00in /  0mm 0 W/m2
22:24 58.9 °F /  14.9 °C 49.9 °F /  9.9 °C 30.23in /  1023.6hPa NW 0.4mph /  0.6km/h 4mph /  6.4km/h 72% 0.00in /  0mm 0 W/m2
22:29 58.6 °F /  14.8 °C 50 °F /  10 °C 30.23in /  1023.6hPa NW 0.2mph /  0.3km/h 2mph /  3.2km/h 72.8% 0.00in /  0mm 0 W/m2
22:34 58.4 °F /  14.7 °C 49.7 °F /  9.8 °C 30.23in /  1023.6hPa NW 0.1mph /  0.2km/h 2mph /  3.2km/h 73% 0.00in /  0mm 0 W/m2
22:39 58.1 °F /  14.5 °C 49.5 °F /  9.7 °C 30.24in /  1023.9hPa Calm     73% 0.00in /  0mm 0 W/m2
22:44 57.9 °F /  14.4 °C 49.4 °F /  9.7 °C 30.24in /  1023.9hPa NW 0.4mph /  0.6km/h 2mph /  3.2km/h 73.1% 0.00in /  0mm 0 W/m2
22:49 57.8 °F /  14.3 °C 49.6 °F /  9.8 °C 30.24in /  1023.9hPa NW 0.7mph /  1.1km/h 3mph /  4.8km/h 74% 0.00in /  0mm 0 W/m2
22:54 57.7 °F /  14.3 °C 49.5 °F /  9.7 °C 30.24in /  1023.9hPa NW 2.3mph /  3.7km/h 4mph /  6.4km/h 74% 0.00in /  0mm 0 W/m2
22:59 57.6 °F /  14.2 °C 49.3 °F /  9.6 °C 30.24in /  1023.9hPa NW 2.4mph /  3.9km/h 5mph /  8km/h 74% 0.00in /  0mm 0 W/m2
23:04 57.6 °F /  14.2 °C 49.3 °F /  9.6 °C 30.24in /  1023.9hPa NW 1.3mph /  2.1km/h 4mph /  6.4km/h 74% 0.00in /  0mm 0 W/m2
23:09 57.6 °F /  14.2 °C 49.3 °F /  9.6 °C 30.24in /  1023.9hPa NW 0.1mph /  0.2km/h 3mph /  4.8km/h 74% 0.00in /  0mm 0 W/m2
23:14 57.6 °F /  14.2 °C 49.3 °F /  9.6 °C 30.24in /  1023.9hPa Calm   1mph /  1.6km/h 74% 0.00in /  0mm 0 W/m2
23:19 57.5 °F /  14.2 °C 49.2 °F /  9.6 °C 30.24in /  1023.9hPa Calm     74% 0.00in /  0mm 0 W/m2
23:24 57.5 °F /  14.2 °C 49.2 °F /  9.6 °C 30.25in /  1024.3hPa Calm     74% 0.00in /  0mm 0 W/m2
23:29 57.3 °F /  14.1 °C 49 °F /  9.4 °C 30.25in /  1024.3hPa NW 0.5mph /  0.8km/h 2mph /  3.2km/h 74% 0.00in /  0mm 0 W/m2
23:34 57.1 °F /  13.9 °C 48.8 °F /  9.3 °C 30.25in /  1024.3hPa NW 0.8mph /  1.3km/h 3mph /  4.8km/h 74% 0.00in /  0mm 0 W/m2
23:39 56.9 °F /  13.8 °C 48.7 °F /  9.3 °C 30.25in /  1024.3hPa NW 0.8mph /  1.3km/h 3mph /  4.8km/h 74% 0.00in /  0mm 0 W/m2
23:44 56.8 °F /  13.8 °C 48.6 °F /  9.2 °C 30.25in /  1024.3hPa NW 0.8mph /  1.3km/h 3mph /  4.8km/h 74% 0.00in /  0mm 0 W/m2
23:49 56.7 °F /  13.7 °C 48.6 °F /  9.2 °C 30.25in /  1024.3hPa NW 1.7mph /  2.7km/h 4mph /  6.4km/h 74.6% 0.00in /  0mm 0 W/m2
23:54 56.8 °F /  13.8 °C 48.9 °F /  9.4 °C 30.25in /  1024.3hPa NW 1.1mph /  1.8km/h 4mph /  6.4km/h 75% 0.00in /  0mm 0 W/m2
23:59 56.9 °F /  13.8 °C 49 °F /  9.4 °C 30.25in /  1024.3hPa NW 2.2mph /  3.5km/h 5mph /  8km/h 75% 0.00in /  0mm 0 W/m2
Bath Spa Weather
Compliments of Weather Underground - 2 mb